Pagrindinis puslapis
METAR-TAF:

METAR-TAF

Oro uostai :

Mikelis, Suomija

platuma: 61-44N, ilguma: 027-18E, Aukštis: 138 m

Dabartinis oras

Ataskaita buvo paskelbta 34 minutes, ne 13:50 UTC
Vėjas 4 kt iš Šiaurės/Šiaurės Vakarų, svyruoja nuo Vakarų ir Šiaurės Rytų
Temperatūra 1°C
Drėgmė 86%
Slėgis 1008 hPa
Matomumas 10 km arba daugiau
Mažai debesys ne aukštis 1000 ft
Su prošvaistėmis ne aukštis 2300 ft
sniegas

METAR: EFMI 231350Z AUTO 33004KT 270V050 9999 -SHSN FEW010 BKN023 01/M01 Q1008

Laikas: 17:24 (14:24 UTC)


TAF: trūkstamas

Orai ataskaitas ir orų prognozės (METAR, TAF).

turimą stotys yra geltonos ir raudonos taškus žemėlapyje.

Perkelti pele per norėdami pamatyti stoties vardą.

Tada spustelėkite, norėdami matyti oro stebėjimo ir prognozės.

Norėdami pakeisti žemėlapį: spustelėkite ant žalios mygtukų su juodo kryžiaus žemyn,; žalią mygtuką su brūkšneliu, jei norite nutolinti; arba žalių rodyklių gretimoms žemėlapius.


METAR-TAF: